Terminal Aerodrome Forecast
Issued by NWS

Home | Current Version | Previous Version | Text Only | Print | Product List | Glossary Off
Versions: 1 2 3 4 5 6 7 8 9 10 11 12 13 14 15 16 17 18 19 20 21 22 23 24 25 26

023
FTUS43 KABR 252337
TAFATY
TAF
KATY 252337Z 2600/2624 33009KT P6SM OVC015
     FM260700 01006KT P6SM OVC008
     FM260900 02007KT 3SM BR OVC003
     FM261600 06012KT P6SM OVC008
     FM261800 07014KT P6SM OVC015=

USA.gov is the U.S. government's official web portal to all federal, state and local government web resources and services.